createdAt,value
2019-05-11T00:00:46.323Z,3.13
2019-05-11T00:03:13.774Z,3.43
2019-05-11T00:05:41.809Z,7.37
2019-05-11T00:08:09.230Z,4.97
2019-05-11T00:10:36.662Z,7.83
2019-05-11T00:13:04.070Z,5.20
2019-05-11T00:15:31.506Z,8.80
2019-05-11T00:17:59.089Z,5.07
2019-05-11T00:20:26.540Z,7.90
2019-05-11T00:22:53.978Z,5.60
2019-05-11T00:25:21.419Z,5.60
2019-05-11T00:27:48.867Z,6.07
2019-05-11T00:30:16.389Z,5.40
2019-05-11T00:32:43.837Z,5.13
2019-05-11T00:35:11.252Z,5.83
2019-05-11T00:37:38.717Z,4.83
2019-05-11T00:40:14.520Z,5.60
2019-05-11T00:42:35.574Z,8.17
2019-05-11T00:45:03.526Z,5.57
2019-05-11T00:47:30.925Z,5.83
2019-05-11T00:49:58.351Z,5.87
2019-05-11T00:52:25.837Z,8.20
2019-05-11T00:54:53.316Z,4.90
2019-05-11T00:57:20.760Z,4.63
2019-05-11T00:59:48.276Z,7.90
2019-05-11T01:02:15.714Z,4.53
2019-05-11T01:04:43.795Z,8.50
2019-05-11T01:07:11.805Z,3.90
2019-05-11T01:09:39.362Z,6.03
2019-05-11T01:12:06.797Z,6.70
2019-05-11T01:14:35.486Z,7.60
2019-05-11T01:17:02.946Z,7.00
2019-05-11T01:19:30.626Z,7.90
2019-05-11T01:21:58.072Z,6.53
2019-05-11T01:24:25.502Z,11.40
2019-05-11T01:26:52.869Z,15.27
2019-05-11T01:29:20.330Z,12.70
2019-05-11T01:31:47.768Z,18.60
2019-05-11T01:34:15.166Z,7.50
2019-05-11T01:36:42.623Z,12.13
2019-05-11T01:39:10.092Z,7.63
2019-05-11T01:41:37.475Z,12.47
2019-05-11T01:44:04.966Z,8.53
2019-05-11T01:46:32.938Z,11.27
2019-05-11T01:49:00.380Z,7.57
2019-05-11T01:51:27.835Z,8.63
2019-05-11T01:53:55.281Z,11.97
2019-05-11T01:56:22.830Z,7.30
2019-05-11T01:58:50.301Z,8.30
2019-05-11T02:01:17.754Z,7.80
2019-05-11T02:03:45.196Z,7.00
2019-05-11T02:06:12.650Z,6.43
2019-05-11T02:08:40.052Z,8.87
2019-05-11T02:11:15.784Z,6.23
2019-05-11T02:13:37.009Z,6.53
2019-05-11T02:16:04.416Z,4.93
2019-05-11T02:18:31.860Z,6.60
2019-05-11T02:20:59.294Z,6.77
2019-05-11T02:23:26.735Z,10.20
2019-05-11T02:25:54.122Z,6.97
2019-05-11T02:28:21.541Z,9.67
2019-05-11T02:30:48.984Z,7.60
2019-05-11T02:33:16.377Z,9.23
2019-05-11T02:35:43.957Z,6.20
2019-05-11T02:38:11.381Z,6.40
2019-05-11T02:40:38.771Z,7.23
2019-05-11T02:43:06.203Z,6.90
2019-05-11T02:45:39.050Z,6.23
2019-05-11T02:48:06.433Z,9.37
2019-05-11T02:50:35.933Z,7.13
2019-05-11T02:53:04.006Z,9.80
2019-05-11T02:55:33.314Z,10.20
2019-05-11T02:58:00.836Z,7.37
2019-05-11T03:00:38.333Z,9.00
2019-05-11T03:03:05.850Z,9.37
2019-05-11T03:05:33.306Z,7.60
2019-05-11T03:08:01.365Z,7.73
2019-05-11T03:10:28.788Z,7.80
2019-05-11T03:12:56.263Z,9.53
2019-05-11T03:15:23.733Z,8.53
2019-05-11T03:17:51.218Z,9.67
2019-05-11T03:20:18.667Z,9.83
2019-05-11T03:22:46.071Z,8.70
2019-05-11T03:25:13.745Z,8.67
2019-05-11T03:27:41.253Z,8.83
2019-05-11T03:30:09.146Z,10.53
2019-05-11T03:32:36.724Z,9.10
2019-05-11T03:35:04.673Z,12.13
2019-05-11T03:37:32.128Z,9.20
2019-05-11T03:39:59.597Z,10.30
2019-05-11T03:42:27.029Z,7.53
2019-05-11T03:44:54.514Z,6.93
2019-05-11T03:47:21.908Z,9.23
2019-05-11T03:49:49.342Z,10.43
2019-05-11T03:52:17.132Z,6.83
2019-05-11T03:54:44.488Z,6.87
2019-05-11T03:57:11.918Z,7.43
2019-05-11T03:59:39.498Z,10.47
2019-05-11T04:02:06.862Z,15.47
2019-05-11T04:04:34.288Z,11.23
2019-05-11T04:07:01.841Z,11.77
2019-05-11T04:09:29.207Z,11.57
2019-05-11T04:11:56.668Z,12.70
2019-05-11T04:14:24.121Z,8.07
2019-05-11T04:16:51.521Z,9.97
2019-05-11T04:19:18.888Z,6.33
2019-05-11T04:21:46.338Z,8.20
2019-05-11T04:24:13.772Z,11.33
2019-05-11T04:26:41.237Z,7.77
2019-05-11T04:29:08.656Z,7.67
2019-05-11T04:31:36.058Z,9.30
2019-05-11T04:34:03.625Z,10.97
2019-05-11T04:36:31.101Z,9.07
2019-05-11T04:38:58.573Z,9.37
2019-05-11T04:41:26.005Z,7.23
2019-05-11T04:43:53.570Z,11.40
2019-05-11T04:46:20.970Z,7.13
2019-05-11T04:48:48.345Z,6.73
2019-05-11T04:51:15.801Z,6.07
2019-05-11T04:53:43.243Z,7.17
2019-05-11T04:56:10.684Z,8.27
2019-05-11T04:58:38.090Z,6.10
2019-05-11T05:01:05.663Z,7.47
2019-05-11T05:03:40.758Z,9.50
2019-05-11T05:06:20.999Z,6.80
2019-05-11T05:08:32.590Z,6.37
2019-05-11T05:11:00.751Z,5.77
2019-05-11T05:13:29.565Z,5.90
2019-05-11T05:15:57.638Z,5.37
2019-05-11T05:18:25.286Z,6.53
2019-05-11T05:20:52.755Z,7.77
2019-05-11T05:23:20.459Z,6.90
2019-05-11T05:25:47.935Z,7.87
2019-05-11T05:28:15.381Z,9.50
2019-05-11T05:30:42.772Z,6.30
2019-05-11T05:33:10.214Z,7.67
2019-05-11T05:35:37.664Z,6.83
2019-05-11T05:38:05.128Z,7.33
2019-05-11T05:40:32.682Z,8.87
2019-05-11T05:43:00.212Z,9.00
2019-05-11T05:45:27.623Z,8.00
2019-05-11T05:47:55.126Z,7.27
2019-05-11T05:50:22.587Z,4.80
2019-05-11T05:52:49.997Z,7.33
2019-05-11T05:55:17.441Z,5.47
2019-05-11T05:57:44.878Z,5.93
2019-05-11T06:00:12.945Z,6.63
2019-05-11T06:02:43.162Z,8.03
2019-05-11T06:05:10.798Z,9.73
2019-05-11T06:07:38.250Z,11.07
2019-05-11T06:10:06.721Z,5.93
2019-05-11T06:12:34.197Z,5.57
2019-05-11T06:15:01.719Z,6.07
2019-05-11T06:17:29.200Z,6.70
2019-05-11T06:19:56.658Z,6.97
2019-05-11T06:22:24.018Z,3.20
2019-05-11T06:24:51.454Z,2.40
2019-05-11T06:27:18.939Z,2.47
2019-05-11T06:29:46.341Z,2.53
2019-05-11T06:32:13.814Z,2.87
2019-05-11T06:34:41.267Z,2.07
2019-05-11T06:37:08.775Z,5.07
2019-05-11T06:39:36.264Z,3.53
2019-05-11T06:42:03.641Z,2.97
2019-05-11T06:44:31.048Z,1.80
2019-05-11T06:46:58.575Z,4.63
2019-05-11T06:49:25.989Z,1.87
2019-05-11T06:51:53.497Z,3.80
2019-05-11T06:54:21.006Z,2.47
2019-05-11T06:56:48.489Z,3.60
2019-05-11T06:59:15.933Z,1.93
2019-05-11T07:01:43.387Z,2.43
2019-05-11T07:04:11.028Z,4.57
2019-05-11T07:06:38.460Z,2.83
2019-05-11T07:09:06.813Z,1.63
2019-05-11T07:11:34.262Z,3.47
2019-05-11T07:14:18.709Z,3.20
2019-05-11T07:16:31.015Z,4.10
2019-05-11T07:18:58.452Z,1.30
2019-05-11T07:21:25.953Z,1.63
2019-05-11T07:23:53.405Z,2.80
2019-05-11T07:26:20.864Z,2.73
2019-05-11T07:28:48.588Z,1.70
2019-05-11T07:31:16.044Z,1.30
2019-05-11T07:33:43.496Z,1.70
2019-05-11T07:36:11.159Z,2.20
2019-05-11T07:38:38.656Z,4.23
2019-05-11T07:41:08.615Z,1.67
2019-05-11T07:43:37.858Z,6.10
2019-05-11T07:46:04.912Z,3.73
2019-05-11T07:48:32.296Z,2.87
2019-05-11T07:50:59.755Z,0.90
2019-05-11T07:53:27.983Z,0.97
2019-05-11T07:55:57.715Z,3.63
2019-05-11T07:58:25.245Z,1.80
2019-05-11T08:00:52.696Z,3.47
2019-05-11T08:03:20.158Z,2.47
2019-05-11T08:05:48.039Z,2.07
2019-05-11T08:08:17.891Z,3.83
2019-05-11T08:10:44.987Z,1.00
2019-05-11T08:13:12.546Z,1.43
2019-05-11T08:15:39.975Z,0.90
2019-05-11T08:18:08.507Z,1.90
2019-05-11T08:20:38.349Z,2.40
2019-05-11T08:23:05.548Z,1.93
2019-05-11T08:25:33.066Z,2.67
2019-05-11T08:28:00.693Z,2.23
2019-05-11T08:30:28.184Z,2.10
2019-05-11T08:32:58.079Z,1.57
2019-05-11T08:35:30.373Z,1.83
2019-05-11T08:37:54.333Z,0.90
2019-05-11T08:40:21.904Z,2.80
2019-05-11T08:42:49.381Z,1.20
2019-05-11T08:45:23.679Z,1.43
2019-05-11T08:47:48.436Z,1.80
2019-05-11T08:50:15.794Z,2.57
2019-05-11T08:52:44.048Z,1.20
2019-05-11T08:55:11.682Z,0.57
2019-05-11T08:57:39.067Z,1.83
2019-05-11T09:00:08.705Z,1.53
2019-05-11T09:02:38.180Z,0.70
2019-05-11T09:05:07.978Z,1.37
2019-05-11T09:07:35.151Z,1.00
2019-05-11T09:10:02.672Z,0.77
2019-05-11T09:12:30.155Z,2.10
2019-05-11T09:14:58.194Z,0.50
2019-05-11T09:17:25.855Z,1.40
2019-05-11T09:19:53.351Z,1.57
2019-05-11T09:22:20.823Z,4.93
2019-05-11T09:24:48.248Z,1.23
2019-05-11T09:27:18.189Z,0.50
2019-05-11T09:29:45.270Z,4.47
2019-05-11T09:32:12.660Z,0.80
2019-05-11T09:34:40.118Z,0.70
2019-05-11T09:37:08.026Z,1.83
2019-05-11T09:39:35.557Z,1.13
2019-05-11T09:42:02.989Z,0.40
2019-05-11T09:44:30.471Z,0.70
2019-05-11T09:47:02.272Z,1.80
2019-05-11T09:49:43.364Z,0.90
2019-05-11T09:51:58.747Z,2.37
2019-05-11T09:54:25.980Z,1.87
2019-05-11T09:56:53.426Z,1.40
2019-05-11T09:59:20.815Z,2.83
2019-05-11T10:01:48.508Z,0.73
2019-05-11T10:04:17.918Z,0.90
2019-05-11T10:06:45.303Z,0.73
2019-05-11T10:09:13.640Z,0.60
2019-05-11T10:11:41.077Z,0.73
2019-05-11T10:14:08.600Z,0.40
2019-05-11T10:16:38.437Z,1.60
2019-05-11T10:19:05.519Z,2.67
2019-05-11T10:21:32.973Z,0.77
2019-05-11T10:24:00.459Z,3.07
2019-05-11T10:26:27.997Z,2.57
2019-05-11T10:28:55.499Z,2.07
2019-05-11T10:31:22.953Z,5.57
2019-05-11T10:33:50.369Z,1.70
2019-05-11T10:36:18.883Z,7.87
2019-05-11T10:38:48.766Z,1.40
2019-05-11T10:41:18.085Z,2.17
2019-05-11T10:43:45.397Z,0.63
2019-05-11T10:46:19.464Z,2.77
2019-05-11T10:48:42.219Z,4.53
2019-05-11T10:51:09.730Z,1.93
2019-05-11T10:53:38.396Z,1.37
2019-05-11T10:56:08.548Z,1.97
2019-05-11T10:58:37.750Z,2.10
2019-05-11T11:01:04.972Z,0.70
2019-05-11T11:03:32.557Z,0.67
2019-05-11T11:06:00.032Z,1.07
2019-05-11T11:08:27.945Z,1.53
2019-05-11T11:10:55.707Z,0.73
2019-05-11T11:13:23.116Z,1.07
2019-05-11T11:15:50.594Z,2.73
2019-05-11T11:18:18.895Z,2.10
2019-05-11T11:20:48.685Z,0.50
2019-05-11T11:23:17.752Z,1.23
2019-05-11T11:25:45.181Z,2.07
2019-05-11T11:28:12.647Z,1.10
2019-05-11T11:30:40.118Z,0.60
2019-05-11T11:33:08.069Z,1.33
2019-05-11T11:35:35.837Z,3.17
2019-05-11T11:38:03.528Z,3.40
2019-05-11T11:40:31.010Z,1.00
2019-05-11T11:42:58.599Z,0.77
2019-05-11T11:45:28.596Z,0.87
2019-05-11T11:47:57.975Z,2.53
2019-05-11T11:50:25.102Z,1.00
2019-05-11T11:52:52.577Z,0.97
2019-05-11T11:55:20.010Z,0.50
2019-05-11T11:57:48.644Z,1.73
2019-05-11T12:00:18.378Z,2.27
2019-05-11T12:02:45.960Z,2.90
2019-05-11T12:05:13.653Z,1.60
2019-05-11T12:07:41.098Z,0.97
2019-05-11T12:10:09.359Z,1.10
2019-05-11T12:12:38.728Z,2.27
2019-05-11T12:15:08.662Z,1.10
2019-05-11T12:17:37.661Z,0.50
2019-05-11T12:20:05.688Z,4.53
2019-05-11T12:22:33.192Z,0.80
2019-05-11T12:25:00.635Z,0.53
2019-05-11T12:27:28.687Z,3.57
2019-05-11T12:29:58.177Z,1.00
2019-05-11T12:32:33.264Z,2.47
2019-05-11T12:35:00.725Z,2.33
2019-05-11T12:37:28.294Z,1.30
2019-05-11T12:39:55.783Z,1.00
2019-05-11T12:42:23.245Z,3.13
2019-05-11T12:44:50.712Z,0.60
2019-05-11T12:47:24.259Z,2.00
2019-05-11T12:49:48.359Z,1.20
2019-05-11T12:52:18.273Z,1.00
2019-05-11T12:54:47.751Z,1.27
2019-05-11T12:57:14.825Z,0.77
2019-05-11T12:59:42.288Z,1.10
2019-05-11T13:02:09.774Z,0.80
2019-05-11T13:04:38.487Z,1.00
2019-05-11T13:07:06.138Z,1.50
2019-05-11T13:09:33.595Z,0.80
2019-05-11T13:12:01.131Z,0.93
2019-05-11T13:14:28.660Z,1.33
2019-05-11T13:16:58.932Z,0.50
2019-05-11T13:19:28.210Z,0.67
2019-05-11T13:21:55.859Z,0.50
2019-05-11T13:24:23.268Z,2.27
2019-05-11T13:26:50.733Z,0.50
2019-05-11T13:29:18.292Z,1.30
2019-05-11T13:31:45.709Z,1.30
2019-05-11T13:34:13.172Z,0.60
2019-05-11T13:36:40.714Z,1.50
2019-05-11T13:39:08.877Z,0.50
2019-05-11T13:41:38.285Z,0.40
2019-05-11T13:44:07.975Z,2.37
2019-05-11T13:46:35.454Z,0.50
2019-05-11T13:49:02.944Z,3.67
2019-05-11T13:51:30.430Z,0.97
2019-05-11T13:53:58.418Z,0.83
2019-05-11T13:56:28.114Z,1.23
2019-05-11T13:58:59.374Z,2.33
2019-05-11T14:01:27.864Z,2.27
2019-05-11T14:03:55.436Z,0.70
2019-05-11T14:06:22.799Z,1.53
2019-05-11T14:08:50.223Z,2.50
2019-05-11T14:11:18.408Z,0.50
2019-05-11T14:13:48.084Z,0.50
2019-05-11T14:16:17.915Z,1.50
2019-05-11T14:18:45.301Z,0.73
2019-05-11T14:21:12.757Z,0.50
2019-05-11T14:23:40.191Z,0.60
2019-05-11T14:26:08.441Z,1.53
2019-05-11T14:28:37.699Z,1.87
2019-05-11T14:31:05.426Z,2.90
2019-05-11T14:33:32.845Z,0.67
2019-05-11T14:36:00.229Z,0.50
2019-05-11T14:38:28.913Z,1.60
2019-05-11T14:40:58.486Z,1.97
2019-05-11T14:43:27.750Z,1.70
2019-05-11T14:45:55.157Z,2.33
2019-05-11T14:48:26.850Z,2.47
2019-05-11T14:50:52.029Z,1.50
2019-05-11T14:53:19.496Z,1.53
2019-05-11T14:55:48.774Z,1.17
2019-05-11T14:58:19.414Z,2.13
2019-05-11T15:00:45.627Z,1.30
2019-05-11T15:03:13.083Z,1.93
2019-05-11T15:05:41.465Z,1.60
2019-05-11T15:08:09.722Z,2.33
2019-05-11T15:10:38.264Z,0.70
2019-05-11T15:13:07.963Z,1.07
2019-05-11T15:15:35.300Z,0.60
2019-05-11T15:18:02.976Z,1.47
2019-05-11T15:20:30.410Z,2.10
2019-05-11T15:22:58.263Z,0.83
2019-05-11T15:25:25.717Z,0.87
2019-05-11T15:27:53.172Z,1.67
2019-05-11T15:30:20.753Z,0.63
2019-05-11T15:32:48.550Z,0.70
2019-05-11T15:35:18.398Z,1.90
2019-05-11T15:37:47.306Z,0.83
2019-05-11T15:40:18.641Z,0.77
2019-05-11T15:42:48.380Z,1.67
2019-05-11T15:45:18.656Z,0.63
2019-05-11T15:47:48.448Z,2.00
2019-05-11T15:50:18.942Z,1.60
2019-05-11T15:52:48.496Z,0.50
2019-05-11T15:55:15.600Z,0.70
2019-05-11T15:57:43.093Z,1.33
2019-05-11T16:00:12.892Z,0.57
2019-05-11T16:02:41.191Z,1.23
2019-05-11T16:05:09.303Z,0.93
2019-05-11T16:07:38.403Z,0.50
2019-05-11T16:10:08.106Z,0.73
2019-05-11T16:12:35.868Z,4.77
2019-05-11T16:15:04.786Z,1.73
2019-05-11T16:17:32.255Z,1.37
2019-05-11T16:19:59.695Z,5.70
2019-05-11T16:22:27.983Z,1.07
2019-05-11T16:24:57.957Z,1.43
2019-05-11T16:27:24.884Z,0.90
2019-05-11T16:29:52.408Z,0.67
2019-05-11T16:32:19.969Z,1.57
2019-05-11T16:34:47.442Z,3.73
2019-05-11T16:37:14.878Z,2.37
2019-05-11T16:39:42.292Z,1.27
2019-05-11T16:42:09.662Z,7.00
2019-05-11T16:44:37.853Z,3.00
2019-05-11T16:47:07.722Z,2.67
2019-05-11T16:49:34.956Z,1.43
2019-05-11T16:52:02.363Z,7.23
2019-05-11T16:54:29.795Z,1.20
2019-05-11T16:56:57.974Z,1.67
2019-05-11T16:59:25.581Z,1.00
2019-05-11T17:01:53.025Z,2.50
2019-05-11T17:04:20.486Z,2.87
2019-05-11T17:06:48.645Z,3.07
2019-05-11T17:09:18.024Z,3.23
2019-05-11T17:11:45.830Z,6.33
2019-05-11T17:14:13.344Z,5.53
2019-05-11T17:16:40.754Z,5.00
2019-05-11T17:19:08.336Z,3.57
2019-05-11T17:21:38.173Z,4.97
2019-05-11T17:24:05.187Z,2.23
2019-05-11T17:26:32.576Z,3.47
2019-05-11T17:28:59.983Z,7.33
2019-05-11T17:31:27.402Z,4.10
2019-05-11T17:33:54.757Z,10.00
2019-05-11T17:36:22.208Z,2.93
2019-05-11T17:38:49.643Z,14.27
2019-05-11T17:41:17.066Z,6.63
2019-05-11T17:43:44.536Z,4.43
2019-05-11T17:46:11.971Z,6.87
2019-05-11T17:48:39.392Z,6.53
2019-05-11T17:51:19.968Z,6.87
2019-05-11T17:53:37.831Z,6.77
2019-05-11T17:56:05.644Z,9.53
2019-05-11T17:58:33.072Z,8.97
2019-05-11T18:01:00.503Z,32.07
2019-05-11T18:03:28.048Z,19.33
2019-05-11T18:05:55.503Z,6.00
2019-05-11T18:08:22.925Z,7.00
2019-05-11T18:10:50.362Z,6.17
2019-05-11T18:13:17.961Z,7.33
2019-05-11T18:15:45.588Z,8.80
2019-05-11T18:18:13.008Z,5.83
2019-05-11T18:20:40.438Z,5.37
2019-05-11T18:23:08.392Z,6.07
2019-05-11T18:25:36.081Z,6.93
2019-05-11T18:28:03.552Z,7.47
2019-05-11T18:30:30.990Z,8.63
2019-05-11T18:32:59.470Z,3.50
2019-05-11T18:35:27.874Z,10.97
2019-05-11T18:37:55.500Z,5.67
2019-05-11T18:40:22.918Z,5.53
2019-05-11T18:42:50.312Z,7.87
2019-05-11T18:45:18.815Z,5.20
2019-05-11T18:47:48.857Z,6.67
2019-05-11T18:50:29.310Z,5.30
2019-05-11T18:52:45.726Z,4.20
2019-05-11T18:55:13.238Z,4.23
2019-05-11T18:57:40.728Z,6.13
2019-05-11T19:00:08.856Z,4.57
2019-05-11T19:02:38.489Z,3.60
2019-05-11T19:05:05.875Z,5.57
2019-05-11T19:07:33.306Z,5.53
2019-05-11T19:10:00.724Z,5.73
2019-05-11T19:12:28.293Z,5.83
2019-05-11T19:14:58.538Z,4.30
2019-05-11T19:17:25.220Z,5.00
2019-05-11T19:19:52.830Z,6.50
2019-05-11T19:22:20.236Z,7.23
2019-05-11T19:24:47.696Z,7.07
2019-05-11T19:27:15.080Z,7.20
2019-05-11T19:29:42.509Z,9.10
2019-05-11T19:32:11.160Z,8.43
2019-05-11T19:34:38.961Z,5.47
2019-05-11T19:37:08.469Z,5.33
2019-05-11T19:39:35.732Z,6.60
2019-05-11T19:42:03.098Z,15.53
2019-05-11T19:44:30.531Z,2.30
2019-05-11T19:46:58.241Z,4.23
2019-05-11T19:49:27.828Z,3.43
2019-05-11T19:51:55.127Z,3.90
2019-05-11T19:54:22.597Z,3.17
2019-05-11T19:56:52.267Z,4.23
2019-05-11T19:59:19.380Z,3.23
2019-05-11T20:01:46.808Z,2.67
2019-05-11T20:04:14.272Z,2.50
2019-05-11T20:06:41.734Z,3.23
2019-05-11T20:09:09.136Z,2.23
2019-05-11T20:11:38.359Z,2.53
2019-05-11T20:14:08.086Z,2.37
2019-05-11T20:16:35.473Z,3.27
2019-05-11T20:19:02.850Z,3.57
2019-05-11T20:21:30.278Z,2.47
2019-05-11T20:23:57.965Z,1.30
2019-05-11T20:26:25.411Z,3.60
2019-05-11T20:28:52.827Z,4.43
2019-05-11T20:31:20.279Z,1.50
2019-05-11T20:33:47.793Z,6.17
2019-05-11T20:36:17.643Z,3.10
2019-05-11T20:38:44.589Z,2.53
2019-05-11T20:41:12.030Z,2.40
2019-05-11T20:43:39.408Z,2.17
2019-05-11T20:46:08.176Z,10.00
2019-05-11T20:48:38.257Z,4.60
2019-05-11T20:51:08.142Z,2.70
2019-05-11T20:53:35.903Z,3.50
2019-05-11T20:56:03.334Z,3.30
2019-05-11T20:58:50.257Z,2.47
2019-05-11T21:01:18.244Z,3.93
2019-05-11T21:03:48.644Z,2.77
2019-05-11T21:06:18.357Z,2.90
2019-05-11T21:08:48.063Z,2.03
2019-05-11T21:11:14.880Z,5.67
2019-05-11T21:13:42.396Z,1.47
2019-05-11T21:16:09.863Z,1.50
2019-05-11T21:18:38.107Z,2.20
2019-05-11T21:21:05.707Z,2.40
2019-05-11T21:23:33.156Z,3.17
2019-05-11T21:26:00.747Z,2.30
2019-05-11T21:28:30.512Z,3.57
2019-05-11T21:30:58.499Z,1.60
2019-05-11T21:33:28.203Z,1.80
2019-05-11T21:35:58.058Z,1.87
2019-05-11T21:38:24.949Z,2.17
2019-05-11T21:40:52.343Z,1.87
2019-05-11T21:43:19.797Z,3.43
2019-05-11T21:45:47.232Z,3.90
2019-05-11T21:48:14.612Z,3.00
2019-05-11T21:50:42.049Z,3.03
2019-05-11T21:53:10.598Z,2.67
2019-05-11T21:55:38.443Z,2.77
2019-05-11T21:58:05.901Z,2.70
2019-05-11T22:00:33.954Z,3.03
2019-05-11T22:03:01.371Z,3.33
2019-05-11T22:05:29.176Z,2.77
2019-05-11T22:07:58.239Z,2.50
2019-05-11T22:10:28.089Z,3.53
2019-05-11T22:12:55.301Z,2.87
2019-05-11T22:15:22.790Z,1.87
2019-05-11T22:17:50.257Z,1.77
2019-05-11T22:20:18.358Z,1.67
2019-05-11T22:22:47.602Z,3.53
2019-05-11T22:25:15.295Z,2.80
2019-05-11T22:27:42.826Z,2.30
2019-05-11T22:30:11.225Z,2.00
2019-05-11T22:32:38.813Z,5.47
2019-05-11T22:35:06.340Z,2.57
2019-05-11T22:37:33.719Z,5.83
2019-05-11T22:40:01.396Z,4.70
2019-05-11T22:42:28.807Z,5.70
2019-05-11T22:44:56.189Z,2.83
2019-05-11T22:47:23.631Z,7.07
2019-05-11T22:49:51.063Z,3.00
2019-05-11T22:52:31.904Z,3.57
2019-05-11T22:54:48.460Z,3.53
2019-05-11T22:57:16.361Z,3.70
2019-05-11T22:59:43.841Z,6.60
2019-05-11T23:02:11.508Z,6.03
2019-05-11T23:04:38.898Z,4.20
2019-05-11T23:07:07.968Z,4.97
2019-05-11T23:09:38.003Z,3.27
2019-05-11T23:12:04.949Z,2.70
2019-05-11T23:14:32.558Z,4.70
2019-05-11T23:17:00.018Z,3.60
2019-05-11T23:19:27.933Z,3.37
2019-05-11T23:21:55.575Z,6.07
2019-05-11T23:24:22.968Z,4.40
2019-05-11T23:26:50.432Z,5.97
2019-05-11T23:29:17.899Z,3.23
2019-05-11T23:31:47.605Z,3.00
2019-05-11T23:34:14.693Z,3.43
2019-05-11T23:36:42.256Z,4.87
2019-05-11T23:39:09.714Z,4.43
2019-05-11T23:41:38.020Z,4.20
2019-05-11T23:44:05.631Z,5.10
2019-05-11T23:46:33.165Z,3.00
2019-05-11T23:49:00.603Z,2.90
2019-05-11T23:51:28.258Z,2.87
2019-05-11T23:53:55.849Z,2.47
2019-05-11T23:56:23.267Z,2.87
2019-05-11T23:58:50.827Z,2.70
